sensor_id;sensor_type;location;lat;lon;timestamp;P1;durP1;ratioP1;P2;durP2;ratioP2
20593;SDS011;10455;48.732;10.266;2023-05-10T00:00:53;0.28;;;0.28;;
20593;SDS011;10455;48.732;10.266;2023-05-10T00:05:55;0.20;;;0.20;;
20593;SDS011;10455;48.732;10.266;2023-05-10T00:10:57;0.20;;;0.20;;
20593;SDS011;10455;48.732;10.266;2023-05-10T00:16:00;0.70;;;0.70;;
20593;SDS011;10455;48.732;10.266;2023-05-10T00:21:02;0.20;;;0.20;;
20593;SDS011;10455;48.732;10.266;2023-05-10T00:26:05;0.75;;;0.75;;
20593;SDS011;10455;48.732;10.266;2023-05-10T00:31:08;0.20;;;0.20;;
20593;SDS011;10455;48.732;10.266;2023-05-10T00:36:10;0.30;;;0.30;;
20593;SDS011;10455;48.732;10.266;2023-05-10T00:41:12;0.20;;;0.20;;
20593;SDS011;10455;48.732;10.266;2023-05-10T00:46:15;0.10;;;0.10;;
20593;SDS011;10455;48.732;10.266;2023-05-10T00:51:18;0.10;;;0.10;;
20593;SDS011;10455;48.732;10.266;2023-05-10T00:56:20;0.10;;;0.10;;
20593;SDS011;10455;48.732;10.266;2023-05-10T01:01:25;0.20;;;0.20;;
20593;SDS011;10455;48.732;10.266;2023-05-10T01:06:27;1.25;;;1.15;;
20593;SDS011;10455;48.732;10.266;2023-05-10T01:11:29;0.10;;;0.10;;
20593;SDS011;10455;48.732;10.266;2023-05-10T01:16:33;0.20;;;0.20;;
20593;SDS011;10455;48.732;10.266;2023-05-10T01:21:38;0.20;;;0.20;;
20593;SDS011;10455;48.732;10.266;2023-05-10T01:37:59;0.20;;;0.20;;
20593;SDS011;10455;48.732;10.266;2023-05-10T01:43:10;0.20;;;0.20;;
20593;SDS011;10455;48.732;10.266;2023-05-10T01:48:23;1.23;;;1.13;;
20593;SDS011;10455;48.732;10.266;2023-05-10T01:53:30;0.20;;;0.20;;
20593;SDS011;10455;48.732;10.266;2023-05-10T01:58:34;0.20;;;0.20;;
20593;SDS011;10455;48.732;10.266;2023-05-10T02:03:37;0.20;;;0.20;;
20593;SDS011;10455;48.732;10.266;2023-05-10T02:08:42;0.20;;;0.20;;
20593;SDS011;10455;48.732;10.266;2023-05-10T02:13:46;0.20;;;0.20;;
20593;SDS011;10455;48.732;10.266;2023-05-10T02:18:50;0.20;;;0.20;;
20593;SDS011;10455;48.732;10.266;2023-05-10T02:23:55;0.20;;;0.20;;
20593;SDS011;10455;48.732;10.266;2023-05-10T02:28:58;0.10;;;0.10;;
20593;SDS011;10455;48.732;10.266;2023-05-10T02:34:03;0.20;;;0.20;;
20593;SDS011;10455;48.732;10.266;2023-05-10T02:39:08;0.20;;;0.20;;
20593;SDS011;10455;48.732;10.266;2023-05-10T02:44:12;0.20;;;0.20;;
20593;SDS011;10455;48.732;10.266;2023-05-10T02:49:16;0.20;;;0.20;;
20593;SDS011;10455;48.732;10.266;2023-05-10T02:54:22;0.20;;;0.20;;
20593;SDS011;10455;48.732;10.266;2023-05-10T02:59:30;0.20;;;0.20;;
20593;SDS011;10455;48.732;10.266;2023-05-10T03:04:33;0.20;;;0.20;;
20593;SDS011;10455;48.732;10.266;2023-05-10T03:09:36;0.20;;;0.20;;
20593;SDS011;10455;48.732;10.266;2023-05-10T03:14:42;0.20;;;0.20;;
20593;SDS011;10455;48.732;10.266;2023-05-10T03:19:51;0.20;;;0.20;;
20593;SDS011;10455;48.732;10.266;2023-05-10T03:24:56;0.20;;;0.20;;
20593;SDS011;10455;48.732;10.266;2023-05-10T03:30:02;0.20;;;0.20;;
20593;SDS011;10455;48.732;10.266;2023-05-10T03:35:06;0.23;;;0.23;;
20593;SDS011;10455;48.732;10.266;2023-05-10T03:40:10;0.30;;;0.30;;
20593;SDS011;10455;48.732;10.266;2023-05-10T03:45:12;0.30;;;0.30;;
20593;SDS011;10455;48.732;10.266;2023-05-10T03:50:15;0.20;;;0.20;;
20593;SDS011;10455;48.732;10.266;2023-05-10T03:55:18;0.30;;;0.30;;
20593;SDS011;10455;48.732;10.266;2023-05-10T04:00:20;0.27;;;0.27;;
20593;SDS011;10455;48.732;10.266;2023-05-10T04:05:22;0.23;;;0.23;;
20593;SDS011;10455;48.732;10.266;2023-05-10T04:10:25;0.30;;;0.30;;
20593;SDS011;10455;48.732;10.266;2023-05-10T04:15:27;0.30;;;0.30;;
20593;SDS011;10455;48.732;10.266;2023-05-10T04:20:29;0.20;;;0.20;;
20593;SDS011;10455;48.732;10.266;2023-05-10T04:25:35;0.30;;;0.30;;
20593;SDS011;10455;48.732;10.266;2023-05-10T04:30:36;0.30;;;0.30;;
20593;SDS011;10455;48.732;10.266;2023-05-10T04:35:38;0.30;;;0.30;;
20593;SDS011;10455;48.732;10.266;2023-05-10T04:40:41;0.30;;;0.30;;
20593;SDS011;10455;48.732;10.266;2023-05-10T04:45:43;0.30;;;0.30;;
20593;SDS011;10455;48.732;10.266;2023-05-10T04:50:45;0.30;;;0.30;;
20593;SDS011;10455;48.732;10.266;2023-05-10T04:55:49;0.30;;;0.30;;
20593;SDS011;10455;48.732;10.266;2023-05-10T05:00:50;0.30;;;0.30;;
20593;SDS011;10455;48.732;10.266;2023-05-10T05:05:52;0.23;;;0.23;;
20593;SDS011;10455;48.732;10.266;2023-05-10T05:10:55;0.30;;;0.30;;
20593;SDS011;10455;48.732;10.266;2023-05-10T05:15:59;0.30;;;0.30;;
20593;SDS011;10455;48.732;10.266;2023-05-10T05:21:02;0.30;;;0.30;;
20593;SDS011;10455;48.732;10.266;2023-05-10T05:26:05;0.30;;;0.30;;
20593;SDS011;10455;48.732;10.266;2023-05-10T05:31:07;0.40;;;0.40;;
20593;SDS011;10455;48.732;10.266;2023-05-10T05:36:09;0.50;;;0.50;;
20593;SDS011;10455;48.732;10.266;2023-05-10T05:41:12;0.30;;;0.30;;
20593;SDS011;10455;48.732;10.266;2023-05-10T05:46:14;0.40;;;0.40;;
20593;SDS011;10455;48.732;10.266;2023-05-10T05:51:16;0.50;;;0.50;;
20593;SDS011;10455;48.732;10.266;2023-05-10T05:56:20;0.65;;;0.65;;
20593;SDS011;10455;48.732;10.266;2023-05-10T06:01:24;0.55;;;0.55;;
20593;SDS011;10455;48.732;10.266;2023-05-10T06:06:26;0.60;;;0.60;;
20593;SDS011;10455;48.732;10.266;2023-05-10T06:11:29;0.60;;;0.60;;
20593;SDS011;10455;48.732;10.266;2023-05-10T06:16:32;0.60;;;0.60;;
20593;SDS011;10455;48.732;10.266;2023-05-10T06:21:34;0.70;;;0.70;;
20593;SDS011;10455;48.732;10.266;2023-05-10T06:26:37;0.70;;;0.70;;
20593;SDS011;10455;48.732;10.266;2023-05-10T06:31:39;0.60;;;0.60;;
20593;SDS011;10455;48.732;10.266;2023-05-10T06:36:40;0.75;;;0.75;;
20593;SDS011;10455;48.732;10.266;2023-05-10T06:41:44;0.80;;;0.80;;
20593;SDS011;10455;48.732;10.266;2023-05-10T06:46:46;0.80;;;0.80;;
20593;SDS011;10455;48.732;10.266;2023-05-10T06:51:47;0.80;;;0.80;;
20593;SDS011;10455;48.732;10.266;2023-05-10T06:56:51;0.80;;;0.80;;
20593;SDS011;10455;48.732;10.266;2023-05-10T07:01:53;4.38;;;3.17;;
20593;SDS011;10455;48.732;10.266;2023-05-10T07:06:55;0.90;;;0.90;;
20593;SDS011;10455;48.732;10.266;2023-05-10T07:11:59;0.90;;;0.90;;
20593;SDS011;10455;48.732;10.266;2023-05-10T07:17:01;1.00;;;1.00;;
20593;SDS011;10455;48.732;10.266;2023-05-10T07:22:03;0.90;;;0.90;;
20593;SDS011;10455;48.732;10.266;2023-05-10T07:27:07;0.90;;;0.90;;
20593;SDS011;10455;48.732;10.266;2023-05-10T07:32:09;0.85;;;0.85;;
20593;SDS011;10455;48.732;10.266;2023-05-10T07:37:10;1.02;;;1.02;;
20593;SDS011;10455;48.732;10.266;2023-05-10T07:42:14;1.10;;;1.10;;
20593;SDS011;10455;48.732;10.266;2023-05-10T07:47:15;1.00;;;1.00;;
20593;SDS011;10455;48.732;10.266;2023-05-10T07:52:17;1.00;;;1.00;;
20593;SDS011;10455;48.732;10.266;2023-05-10T07:57:21;1.00;;;1.00;;
20593;SDS011;10455;48.732;10.266;2023-05-10T08:02:22;4.53;;;3.40;;
20593;SDS011;10455;48.732;10.266;2023-05-10T08:07:24;1.10;;;1.10;;
20593;SDS011;10455;48.732;10.266;2023-05-10T08:12:27;1.00;;;1.00;;
20593;SDS011;10455;48.732;10.266;2023-05-10T08:17:30;1.00;;;1.00;;
20593;SDS011;10455;48.732;10.266;2023-05-10T08:22:32;1.20;;;1.20;;
20593;SDS011;10455;48.732;10.266;2023-05-10T08:27:35;1.20;;;1.20;;
20593;SDS011;10455;48.732;10.266;2023-05-10T08:32:37;1.20;;;1.20;;
20593;SDS011;10455;48.732;10.266;2023-05-10T08:37:39;1.30;;;1.30;;
20593;SDS011;10455;48.732;10.266;2023-05-10T08:42:43;1.30;;;1.30;;
20593;SDS011;10455;48.732;10.266;2023-05-10T08:47:51;1.30;;;1.30;;
20593;SDS011;10455;48.732;10.266;2023-05-10T08:52:54;1.30;;;1.30;;
20593;SDS011;10455;48.732;10.266;2023-05-10T08:58:00;1.30;;;1.30;;
20593;SDS011;10455;48.732;10.266;2023-05-10T09:03:02;1.60;;;1.50;;
20593;SDS011;10455;48.732;10.266;2023-05-10T09:08:06;1.30;;;1.30;;
20593;SDS011;10455;48.732;10.266;2023-05-10T09:13:10;1.40;;;1.40;;
20593;SDS011;10455;48.732;10.266;2023-05-10T09:18:12;1.40;;;1.40;;
20593;SDS011;10455;48.732;10.266;2023-05-10T09:23:14;1.50;;;1.50;;
20593;SDS011;10455;48.732;10.266;2023-05-10T09:28:18;1.70;;;1.60;;
20593;SDS011;10455;48.732;10.266;2023-05-10T09:33:20;1.50;;;1.50;;
20593;SDS011;10455;48.732;10.266;2023-05-10T09:38:21;1.50;;;1.50;;
20593;SDS011;10455;48.732;10.266;2023-05-10T09:43:25;1.60;;;1.50;;
20593;SDS011;10455;48.732;10.266;2023-05-10T09:48:27;1.67;;;1.58;;
20593;SDS011;10455;48.732;10.266;2023-05-10T09:53:29;1.40;;;1.40;;
20593;SDS011;10455;48.732;10.266;2023-05-10T09:58:32;1.40;;;1.40;;
20593;SDS011;10455;48.732;10.266;2023-05-10T10:03:41;1.52;;;1.50;;
20593;SDS011;10455;48.732;10.266;2023-05-10T10:08:44;2.00;;;1.90;;
20593;SDS011;10455;48.732;10.266;2023-05-10T10:13:47;1.70;;;1.60;;
20593;SDS011;10455;48.732;10.266;2023-05-10T10:18:50;1.70;;;1.60;;
20593;SDS011;10455;48.732;10.266;2023-05-10T10:23:52;2.42;;;2.20;;
20593;SDS011;10455;48.732;10.266;2023-05-10T10:34:01;2.30;;;2.20;;
20593;SDS011;10455;48.732;10.266;2023-05-10T10:39:09;2.80;;;2.60;;
20593;SDS011;10455;48.732;10.266;2023-05-10T10:49:43;5.13;;;2.92;;
20593;SDS011;10455;48.732;10.266;2023-05-10T10:54:50;3.67;;;3.35;;
20593;SDS011;10455;48.732;10.266;2023-05-10T10:59:54;3.08;;;2.80;;
20593;SDS011;10455;48.732;10.266;2023-05-10T11:05:34;3.28;;;3.08;;
20593;SDS011;10455;48.732;10.266;2023-05-10T11:10:37;4.88;;;3.00;;
20593;SDS011;10455;48.732;10.266;2023-05-10T11:15:40;16.27;;;12.63;;
20593;SDS011;10455;48.732;10.266;2023-05-10T11:20:51;8.25;;;6.20;;
20593;SDS011;10455;48.732;10.266;2023-05-10T11:25:54;2.83;;;2.42;;
20593;SDS011;10455;48.732;10.266;2023-05-10T11:36:05;3.78;;;3.45;;
20593;SDS011;10455;48.732;10.266;2023-05-10T11:41:12;2.50;;;2.30;;
20593;SDS011;10455;48.732;10.266;2023-05-10T11:46:14;2.35;;;2.15;;
20593;SDS011;10455;48.732;10.266;2023-05-10T11:51:21;2.55;;;2.35;;
20593;SDS011;10455;48.732;10.266;2023-05-10T11:56:24;2.35;;;2.22;;
20593;SDS011;10455;48.732;10.266;2023-05-10T12:01:27;2.13;;;2.03;;
20593;SDS011;10455;48.732;10.266;2023-05-10T12:06:31;2.38;;;2.25;;
20593;SDS011;10455;48.732;10.266;2023-05-10T12:11:36;3.40;;;2.30;;
20593;SDS011;10455;48.732;10.266;2023-05-10T12:16:39;2.72;;;2.20;;
20593;SDS011;10455;48.732;10.266;2023-05-10T12:21:42;2.53;;;2.30;;
20593;SDS011;10455;48.732;10.266;2023-05-10T12:26:45;3.92;;;2.47;;
20593;SDS011;10455;48.732;10.266;2023-05-10T12:31:48;3.30;;;2.42;;
20593;SDS011;10455;48.732;10.266;2023-05-10T12:36:55;3.92;;;2.40;;
20593;SDS011;10455;48.732;10.266;2023-05-10T12:41:57;2.67;;;2.47;;
20593;SDS011;10455;48.732;10.266;2023-05-10T12:46:59;2.30;;;2.20;;
20593;SDS011;10455;48.732;10.266;2023-05-10T12:52:02;4.32;;;2.47;;
20593;SDS011;10455;48.732;10.266;2023-05-10T12:57:04;2.83;;;2.63;;
20593;SDS011;10455;48.732;10.266;2023-05-10T13:02:06;6.18;;;3.92;;
20593;SDS011;10455;48.732;10.266;2023-05-10T13:07:09;4.70;;;4.32;;
20593;SDS011;10455;48.732;10.266;2023-05-10T13:12:11;3.63;;;3.33;;
20593;SDS011;10455;48.732;10.266;2023-05-10T13:17:13;5.57;;;4.03;;
20593;SDS011;10455;48.732;10.266;2023-05-10T13:22:16;4.72;;;4.05;;
20593;SDS011;10455;48.732;10.266;2023-05-10T13:27:18;4.82;;;4.32;;
20593;SDS011;10455;48.732;10.266;2023-05-10T13:32:20;2.77;;;2.57;;
20593;SDS011;10455;48.732;10.266;2023-05-10T13:37:24;2.13;;;2.00;;
20593;SDS011;10455;48.732;10.266;2023-05-10T13:42:25;1.97;;;1.87;;
20593;SDS011;10455;48.732;10.266;2023-05-10T13:47:28;2.20;;;2.10;;
20593;SDS011;10455;48.732;10.266;2023-05-10T13:52:31;4.00;;;3.60;;
20593;SDS011;10455;48.732;10.266;2023-05-10T13:57:33;5.20;;;3.33;;
20593;SDS011;10455;48.732;10.266;2023-05-10T14:02:35;5.07;;;4.67;;
20593;SDS011;10455;48.732;10.266;2023-05-10T14:07:39;9.63;;;6.10;;
20593;SDS011;10455;48.732;10.266;2023-05-10T14:12:41;4.65;;;3.60;;
20593;SDS011;10455;48.732;10.266;2023-05-10T14:17:43;3.38;;;2.83;;
20593;SDS011;10455;48.732;10.266;2023-05-10T14:22:46;2.80;;;2.60;;
20593;SDS011;10455;48.732;10.266;2023-05-10T14:27:48;3.27;;;2.83;;
20593;SDS011;10455;48.732;10.266;2023-05-10T14:32:50;3.17;;;2.60;;
20593;SDS011;10455;48.732;10.266;2023-05-10T14:37:55;3.03;;;2.80;;
20593;SDS011;10455;48.732;10.266;2023-05-10T14:42:57;2.97;;;2.53;;
20593;SDS011;10455;48.732;10.266;2023-05-10T14:47:58;5.17;;;3.23;;
20593;SDS011;10455;48.732;10.266;2023-05-10T14:53:02;3.10;;;2.80;;
20593;SDS011;10455;48.732;10.266;2023-05-10T14:58:04;4.60;;;2.90;;
20593;SDS011;10455;48.732;10.266;2023-05-10T15:03:06;3.27;;;2.80;;
20593;SDS011;10455;48.732;10.266;2023-05-10T15:08:09;4.17;;;3.27;;
20593;SDS011;10455;48.732;10.266;2023-05-10T15:13:12;3.40;;;3.07;;
20593;SDS011;10455;48.732;10.266;2023-05-10T15:18:14;4.40;;;3.60;;
20593;SDS011;10455;48.732;10.266;2023-05-10T15:23:17;5.60;;;3.50;;
20593;SDS011;10455;48.732;10.266;2023-05-10T15:28:19;3.77;;;3.07;;
20593;SDS011;10455;48.732;10.266;2023-05-10T15:33:21;4.00;;;2.77;;
20593;SDS011;10455;48.732;10.266;2023-05-10T15:38:24;4.53;;;2.80;;
20593;SDS011;10455;48.732;10.266;2023-05-10T15:43:26;5.60;;;2.77;;
20593;SDS011;10455;48.732;10.266;2023-05-10T15:48:28;7.77;;;3.67;;
20593;SDS011;10455;48.732;10.266;2023-05-10T15:53:32;5.07;;;2.80;;
20593;SDS011;10455;48.732;10.266;2023-05-10T15:58:35;3.70;;;3.40;;
20593;SDS011;10455;48.732;10.266;2023-05-10T16:03:37;4.40;;;3.43;;
20593;SDS011;10455;48.732;10.266;2023-05-10T16:08:40;4.43;;;2.97;;
20593;SDS011;10455;48.732;10.266;2023-05-10T16:13:42;6.67;;;3.17;;
20593;SDS011;10455;48.732;10.266;2023-05-10T16:18:44;4.30;;;3.10;;
20593;SDS011;10455;48.732;10.266;2023-05-10T16:23:47;5.73;;;3.50;;
20593;SDS011;10455;48.732;10.266;2023-05-10T16:28:49;5.22;;;3.55;;
20593;SDS011;10455;48.732;10.266;2023-05-10T16:33:51;4.67;;;3.63;;
20593;SDS011;10455;48.732;10.266;2023-05-10T16:38:55;4.67;;;3.50;;
20593;SDS011;10455;48.732;10.266;2023-05-10T16:43:56;5.90;;;3.57;;
20593;SDS011;10455;48.732;10.266;2023-05-10T16:48:59;4.23;;;3.83;;
20593;SDS011;10455;48.732;10.266;2023-05-10T16:54:02;4.60;;;4.10;;
20593;SDS011;10455;48.732;10.266;2023-05-10T16:59:04;5.57;;;4.37;;
20593;SDS011;10455;48.732;10.266;2023-05-10T17:04:06;6.47;;;4.40;;
20593;SDS011;10455;48.732;10.266;2023-05-10T17:09:09;7.20;;;5.07;;
20593;SDS011;10455;48.732;10.266;2023-05-10T17:14:12;5.57;;;4.70;;
20593;SDS011;10455;48.732;10.266;2023-05-10T17:19:14;5.97;;;4.77;;
20593;SDS011;10455;48.732;10.266;2023-05-10T17:24:17;6.53;;;5.27;;
20593;SDS011;10455;48.732;10.266;2023-05-10T17:29:19;6.10;;;5.10;;
20593;SDS011;10455;48.732;10.266;2023-05-10T17:34:20;5.97;;;5.07;;
20593;SDS011;10455;48.732;10.266;2023-05-10T17:39:24;6.03;;;4.90;;
20593;SDS011;10455;48.732;10.266;2023-05-10T17:44:26;9.50;;;5.53;;
20593;SDS011;10455;48.732;10.266;2023-05-10T17:49:27;5.77;;;5.17;;
20593;SDS011;10455;48.732;10.266;2023-05-10T17:54:31;7.00;;;5.53;;
20593;SDS011;10455;48.732;10.266;2023-05-10T17:59:32;6.67;;;5.30;;
20593;SDS011;10455;48.732;10.266;2023-05-10T18:04:34;7.00;;;5.63;;
20593;SDS011;10455;48.732;10.266;2023-05-10T18:09:38;6.17;;;5.57;;
20593;SDS011;10455;48.732;10.266;2023-05-10T18:14:39;9.30;;;5.83;;
20593;SDS011;10455;48.732;10.266;2023-05-10T18:19:41;6.77;;;6.17;;
20593;SDS011;10455;48.732;10.266;2023-05-10T18:24:44;11.20;;;6.60;;
20593;SDS011;10455;48.732;10.266;2023-05-10T18:29:46;7.77;;;6.93;;
20593;SDS011;10455;48.732;10.266;2023-05-10T18:34:48;7.77;;;6.80;;
20593;SDS011;10455;48.732;10.266;2023-05-10T18:39:52;8.87;;;6.93;;
20593;SDS011;10455;48.732;10.266;2023-05-10T18:44:53;9.30;;;8.10;;
20593;SDS011;10455;48.732;10.266;2023-05-10T18:49:55;16.23;;;14.53;;
20593;SDS011;10455;48.732;10.266;2023-05-10T18:54:59;14.50;;;13.00;;
20593;SDS011;10455;48.732;10.266;2023-05-10T19:00:00;14.53;;;13.17;;
20593;SDS011;10455;48.732;10.266;2023-05-10T19:05:03;13.77;;;12.43;;
20593;SDS011;10455;48.732;10.266;2023-05-10T19:10:07;15.97;;;14.27;;
20593;SDS011;10455;48.732;10.266;2023-05-10T19:15:10;15.40;;;14.00;;
20593;SDS011;10455;48.732;10.266;2023-05-10T19:20:12;18.27;;;16.40;;
20593;SDS011;10455;48.732;10.266;2023-05-10T19:25:15;19.67;;;17.60;;
20593;SDS011;10455;48.732;10.266;2023-05-10T19:30:18;22.17;;;19.93;;
20593;SDS011;10455;48.732;10.266;2023-05-10T19:35:20;23.23;;;20.57;;
20593;SDS011;10455;48.732;10.266;2023-05-10T19:40:23;23.33;;;21.10;;
20593;SDS011;10455;48.732;10.266;2023-05-10T19:45:25;29.07;;;24.33;;
20593;SDS011;10455;48.732;10.266;2023-05-10T19:50:27;29.43;;;26.23;;
20593;SDS011;10455;48.732;10.266;2023-05-10T19:55:30;35.00;;;20.73;;
20593;SDS011;10455;48.732;10.266;2023-05-10T20:05:50;29.80;;;26.70;;
20593;SDS011;10455;48.732;10.266;2023-05-10T20:10:53;25.13;;;22.27;;
20593;SDS011;10455;48.732;10.266;2023-05-10T20:15:56;29.40;;;24.40;;
20593;SDS011;10455;48.732;10.266;2023-05-10T20:20:59;26.27;;;23.57;;
20593;SDS011;10455;48.732;10.266;2023-05-10T20:26:02;25.53;;;22.93;;
20593;SDS011;10455;48.732;10.266;2023-05-10T20:31:04;24.30;;;21.57;;
20593;SDS011;10455;48.732;10.266;2023-05-10T20:36:06;24.60;;;21.77;;
20593;SDS011;10455;48.732;10.266;2023-05-10T20:41:11;23.03;;;20.77;;
20593;SDS011;10455;48.732;10.266;2023-05-10T20:46:12;23.33;;;21.03;;
20593;SDS011;10455;48.732;10.266;2023-05-10T20:51:14;22.80;;;20.60;;
20593;SDS011;10455;48.732;10.266;2023-05-10T20:56:18;21.50;;;19.20;;
20593;SDS011;10455;48.732;10.266;2023-05-10T21:01:20;21.33;;;18.87;;
20593;SDS011;10455;48.732;10.266;2023-05-10T21:06:22;21.67;;;19.40;;
20593;SDS011;10455;48.732;10.266;2023-05-10T21:11:25;20.13;;;18.07;;
20593;SDS011;10455;48.732;10.266;2023-05-10T21:16:27;19.70;;;17.70;;
20593;SDS011;10455;48.732;10.266;2023-05-10T21:21:29;19.90;;;17.80;;
20593;SDS011;10455;48.732;10.266;2023-05-10T21:26:32;19.90;;;17.87;;
20593;SDS011;10455;48.732;10.266;2023-05-10T21:31:34;20.47;;;17.03;;
20593;SDS011;10455;48.732;10.266;2023-05-10T21:36:36;19.57;;;17.27;;
20593;SDS011;10455;48.732;10.266;2023-05-10T21:41:40;20.63;;;18.57;;
20593;SDS011;10455;48.732;10.266;2023-05-10T21:46:42;19.67;;;17.67;;
20593;SDS011;10455;48.732;10.266;2023-05-10T21:51:44;20.40;;;18.27;;
20593;SDS011;10455;48.732;10.266;2023-05-10T21:56:47;23.53;;;19.60;;
20593;SDS011;10455;48.732;10.266;2023-05-10T22:01:49;22.60;;;18.17;;
20593;SDS011;10455;48.732;10.266;2023-05-10T22:06:51;19.77;;;17.70;;
20593;SDS011;10455;48.732;10.266;2023-05-10T22:11:54;17.97;;;14.93;;
20593;SDS011;10455;48.732;10.266;2023-05-10T22:16:56;16.67;;;14.97;;
20593;SDS011;10455;48.732;10.266;2023-05-10T22:21:58;17.37;;;15.57;;
20593;SDS011;10455;48.732;10.266;2023-05-10T22:27:01;22.30;;;18.60;;
20593;SDS011;10455;48.732;10.266;2023-05-10T22:32:03;23.73;;;21.20;;
20593;SDS011;10455;48.732;10.266;2023-05-10T22:37:05;24.30;;;21.57;;
20593;SDS011;10455;48.732;10.266;2023-05-10T22:42:09;25.70;;;22.70;;
20593;SDS011;10455;48.732;10.266;2023-05-10T22:47:11;23.77;;;21.27;;
20593;SDS011;10455;48.732;10.266;2023-05-10T22:52:13;30.77;;;22.50;;
20593;SDS011;10455;48.732;10.266;2023-05-10T22:57:16;26.67;;;21.33;;
20593;SDS011;10455;48.732;10.266;2023-05-10T23:02:19;27.97;;;23.00;;
20593;SDS011;10455;48.732;10.266;2023-05-10T23:07:20;27.83;;;23.83;;
20593;SDS011;10455;48.732;10.266;2023-05-10T23:12:24;27.93;;;23.23;;
20593;SDS011;10455;48.732;10.266;2023-05-10T23:17:26;27.60;;;23.17;;
20593;SDS011;10455;48.732;10.266;2023-05-10T23:22:28;28.27;;;21.83;;
20593;SDS011;10455;48.732;10.266;2023-05-10T23:27:31;22.33;;;19.93;;
20593;SDS011;10455;48.732;10.266;2023-05-10T23:32:34;21.87;;;19.23;;
20593;SDS011;10455;48.732;10.266;2023-05-10T23:37:36;24.53;;;20.57;;
20593;SDS011;10455;48.732;10.266;2023-05-10T23:42:49;21.37;;;19.07;;
20593;SDS011;10455;48.732;10.266;2023-05-10T23:47:51;26.03;;;21.57;;
20593;SDS011;10455;48.732;10.266;2023-05-10T23:52:53;25.27;;;22.20;;
